sensor_id;sensor_type;location;lat;lon;timestamp;P1;durP1;ratioP1;P2;durP2;ratioP2
315;SDS011;14128;48.686;9.738;2022-11-15T00:01:07;4.17;;;3.30;;
315;SDS011;14128;48.686;9.738;2022-11-15T00:03:34;4.73;;;3.77;;
315;SDS011;14128;48.686;9.738;2022-11-15T00:06:03;4.00;;;3.20;;
315;SDS011;14128;48.686;9.738;2022-11-15T00:08:30;5.27;;;3.93;;
315;SDS011;14128;48.686;9.738;2022-11-15T00:10:58;6.20;;;3.50;;
315;SDS011;14128;48.686;9.738;2022-11-15T00:13:26;4.30;;;3.23;;
315;SDS011;14128;48.686;9.738;2022-11-15T00:15:56;4.33;;;3.27;;
315;SDS011;14128;48.686;9.738;2022-11-15T00:18:23;4.60;;;4.13;;
315;SDS011;14128;48.686;9.738;2022-11-15T00:20:50;3.43;;;2.50;;
315;SDS011;14128;48.686;9.738;2022-11-15T00:23:18;4.40;;;3.47;;
315;SDS011;14128;48.686;9.738;2022-11-15T00:25:45;4.43;;;3.07;;
315;SDS011;14128;48.686;9.738;2022-11-15T00:28:12;8.03;;;3.73;;
315;SDS011;14128;48.686;9.738;2022-11-15T00:30:38;4.03;;;3.07;;
315;SDS011;14128;48.686;9.738;2022-11-15T00:33:05;4.60;;;3.23;;
315;SDS011;14128;48.686;9.738;2022-11-15T00:35:33;3.37;;;3.20;;
315;SDS011;14128;48.686;9.738;2022-11-15T00:38:00;3.50;;;2.60;;
315;SDS011;14128;48.686;9.738;2022-11-15T00:40:29;5.13;;;2.90;;
315;SDS011;14128;48.686;9.738;2022-11-15T00:42:56;4.70;;;3.20;;
315;SDS011;14128;48.686;9.738;2022-11-15T00:45:23;4.23;;;3.10;;
315;SDS011;14128;48.686;9.738;2022-11-15T00:47:50;4.40;;;3.07;;
315;SDS011;14128;48.686;9.738;2022-11-15T00:50:18;3.40;;;3.20;;
315;SDS011;14128;48.686;9.738;2022-11-15T00:52:45;4.03;;;3.80;;
315;SDS011;14128;48.686;9.738;2022-11-15T00:55:13;3.40;;;3.27;;
315;SDS011;14128;48.686;9.738;2022-11-15T00:57:42;3.80;;;2.97;;
315;SDS011;14128;48.686;9.738;2022-11-15T01:00:09;3.80;;;3.03;;
315;SDS011;14128;48.686;9.738;2022-11-15T01:02:37;4.90;;;3.37;;
315;SDS011;14128;48.686;9.738;2022-11-15T01:05:04;3.50;;;3.00;;
315;SDS011;14128;48.686;9.738;2022-11-15T01:07:31;4.10;;;3.30;;
315;SDS011;14128;48.686;9.738;2022-11-15T01:09:58;4.77;;;3.67;;
315;SDS011;14128;48.686;9.738;2022-11-15T01:12:25;4.60;;;3.20;;
315;SDS011;14128;48.686;9.738;2022-11-15T01:14:53;5.17;;;4.43;;
315;SDS011;14128;48.686;9.738;2022-11-15T01:17:20;4.60;;;3.50;;
315;SDS011;14128;48.686;9.738;2022-11-15T01:19:47;6.00;;;3.97;;
315;SDS011;14128;48.686;9.738;2022-11-15T01:22:14;6.87;;;3.73;;
315;SDS011;14128;48.686;9.738;2022-11-15T01:24:41;4.87;;;3.10;;
315;SDS011;14128;48.686;9.738;2022-11-15T01:27:07;6.70;;;4.40;;
315;SDS011;14128;48.686;9.738;2022-11-15T01:29:35;4.60;;;3.33;;
315;SDS011;14128;48.686;9.738;2022-11-15T01:32:03;6.17;;;4.57;;
315;SDS011;14128;48.686;9.738;2022-11-15T01:34:30;5.10;;;3.77;;
315;SDS011;14128;48.686;9.738;2022-11-15T01:36:57;3.80;;;3.33;;
315;SDS011;14128;48.686;9.738;2022-11-15T01:39:23;5.40;;;4.17;;
315;SDS011;14128;48.686;9.738;2022-11-15T01:41:51;5.43;;;3.70;;
315;SDS011;14128;48.686;9.738;2022-11-15T01:44:38;5.73;;;4.00;;
315;SDS011;14128;48.686;9.738;2022-11-15T01:47:09;8.30;;;3.60;;
315;SDS011;14128;48.686;9.738;2022-11-15T01:49:40;6.17;;;3.90;;
315;SDS011;14128;48.686;9.738;2022-11-15T01:52:16;2.90;;;2.70;;
315;SDS011;14128;48.686;9.738;2022-11-15T01:54:45;5.53;;;3.13;;
315;SDS011;14128;48.686;9.738;2022-11-15T01:57:13;4.20;;;3.30;;
315;SDS011;14128;48.686;9.738;2022-11-15T01:59:40;4.07;;;3.53;;
315;SDS011;14128;48.686;9.738;2022-11-15T02:02:12;10.80;;;4.10;;
315;SDS011;14128;48.686;9.738;2022-11-15T02:04:40;5.10;;;3.80;;
315;SDS011;14128;48.686;9.738;2022-11-15T02:07:08;6.40;;;2.97;;
315;SDS011;14128;48.686;9.738;2022-11-15T02:09:37;6.50;;;3.33;;
315;SDS011;14128;48.686;9.738;2022-11-15T02:12:05;4.30;;;3.07;;
315;SDS011;14128;48.686;9.738;2022-11-15T02:14:34;4.37;;;3.47;;
315;SDS011;14128;48.686;9.738;2022-11-15T02:17:05;4.73;;;3.07;;
315;SDS011;14128;48.686;9.738;2022-11-15T02:19:54;4.93;;;3.37;;
315;SDS011;14128;48.686;9.738;2022-11-15T02:22:51;4.57;;;3.30;;
315;SDS011;14128;48.686;9.738;2022-11-15T02:25:39;4.73;;;3.10;;
315;SDS011;14128;48.686;9.738;2022-11-15T02:28:16;5.33;;;3.40;;
315;SDS011;14128;48.686;9.738;2022-11-15T02:31:05;3.67;;;2.77;;
315;SDS011;14128;48.686;9.738;2022-11-15T02:33:41;4.93;;;3.27;;
315;SDS011;14128;48.686;9.738;2022-11-15T02:36:18;5.50;;;3.67;;
315;SDS011;14128;48.686;9.738;2022-11-15T02:38:53;6.23;;;3.57;;
315;SDS011;14128;48.686;9.738;2022-11-15T02:41:26;9.90;;;3.50;;
315;SDS011;14128;48.686;9.738;2022-11-15T02:43:58;7.10;;;3.27;;
315;SDS011;14128;48.686;9.738;2022-11-15T02:46:33;4.77;;;3.17;;
315;SDS011;14128;48.686;9.738;2022-11-15T02:49:21;3.57;;;2.60;;
315;SDS011;14128;48.686;9.738;2022-11-15T02:51:50;3.73;;;3.57;;
315;SDS011;14128;48.686;9.738;2022-11-15T02:54:19;4.33;;;3.33;;
315;SDS011;14128;48.686;9.738;2022-11-15T02:56:48;9.53;;;3.10;;
315;SDS011;14128;48.686;9.738;2022-11-15T02:59:24;7.77;;;4.00;;
315;SDS011;14128;48.686;9.738;2022-11-15T03:02:13;4.63;;;3.33;;
315;SDS011;14128;48.686;9.738;2022-11-15T03:04:50;6.67;;;3.80;;
315;SDS011;14128;48.686;9.738;2022-11-15T03:07:23;4.83;;;3.60;;
315;SDS011;14128;48.686;9.738;2022-11-15T03:09:56;3.20;;;2.30;;
315;SDS011;14128;48.686;9.738;2022-11-15T03:12:33;4.30;;;2.93;;
315;SDS011;14128;48.686;9.738;2022-11-15T03:15:05;7.83;;;3.47;;
315;SDS011;14128;48.686;9.738;2022-11-15T03:17:39;3.87;;;3.03;;
315;SDS011;14128;48.686;9.738;2022-11-15T03:20:12;4.67;;;3.23;;
315;SDS011;14128;48.686;9.738;2022-11-15T03:22:43;3.90;;;3.27;;
315;SDS011;14128;48.686;9.738;2022-11-15T03:25:13;4.03;;;3.50;;
315;SDS011;14128;48.686;9.738;2022-11-15T03:27:44;4.13;;;3.53;;
315;SDS011;14128;48.686;9.738;2022-11-15T03:30:15;4.07;;;3.77;;
315;SDS011;14128;48.686;9.738;2022-11-15T03:32:45;4.93;;;3.50;;
315;SDS011;14128;48.686;9.738;2022-11-15T03:35:17;3.87;;;3.20;;
315;SDS011;14128;48.686;9.738;2022-11-15T03:37:48;4.60;;;3.10;;
315;SDS011;14128;48.686;9.738;2022-11-15T03:40:18;5.80;;;3.10;;
315;SDS011;14128;48.686;9.738;2022-11-15T03:42:51;6.10;;;2.87;;
315;SDS011;14128;48.686;9.738;2022-11-15T03:45:26;5.77;;;2.73;;
315;SDS011;14128;48.686;9.738;2022-11-15T03:48:00;7.17;;;4.60;;
315;SDS011;14128;48.686;9.738;2022-11-15T03:50:31;3.37;;;2.93;;
315;SDS011;14128;48.686;9.738;2022-11-15T03:52:58;5.10;;;3.73;;
315;SDS011;14128;48.686;9.738;2022-11-15T03:55:25;5.67;;;3.10;;
315;SDS011;14128;48.686;9.738;2022-11-15T03:57:53;5.87;;;4.13;;
315;SDS011;14128;48.686;9.738;2022-11-15T04:00:23;6.30;;;4.67;;
315;SDS011;14128;48.686;9.738;2022-11-15T04:02:50;3.70;;;3.57;;
315;SDS011;14128;48.686;9.738;2022-11-15T04:05:18;4.90;;;4.60;;
315;SDS011;14128;48.686;9.738;2022-11-15T04:07:45;6.70;;;6.30;;
315;SDS011;14128;48.686;9.738;2022-11-15T04:10:12;6.13;;;3.77;;
315;SDS011;14128;48.686;9.738;2022-11-15T04:12:39;3.53;;;3.40;;
315;SDS011;14128;48.686;9.738;2022-11-15T04:15:09;3.50;;;2.70;;
315;SDS011;14128;48.686;9.738;2022-11-15T04:17:38;4.20;;;3.40;;
315;SDS011;14128;48.686;9.738;2022-11-15T04:20:07;7.03;;;3.57;;
315;SDS011;14128;48.686;9.738;2022-11-15T04:22:55;3.33;;;3.03;;
315;SDS011;14128;48.686;9.738;2022-11-15T04:25:41;4.20;;;3.07;;
315;SDS011;14128;48.686;9.738;2022-11-15T04:28:08;5.60;;;3.40;;
315;SDS011;14128;48.686;9.738;2022-11-15T04:30:35;3.60;;;3.50;;
315;SDS011;14128;48.686;9.738;2022-11-15T04:33:02;3.70;;;3.07;;
315;SDS011;14128;48.686;9.738;2022-11-15T04:35:29;2.27;;;2.13;;
315;SDS011;14128;48.686;9.738;2022-11-15T04:37:57;6.10;;;3.20;;
315;SDS011;14128;48.686;9.738;2022-11-15T04:40:23;5.10;;;3.17;;
315;SDS011;14128;48.686;9.738;2022-11-15T04:42:50;3.03;;;2.83;;
315;SDS011;14128;48.686;9.738;2022-11-15T04:45:17;3.90;;;2.90;;
315;SDS011;14128;48.686;9.738;2022-11-15T04:47:43;4.83;;;3.50;;
315;SDS011;14128;48.686;9.738;2022-11-15T04:50:11;5.10;;;3.53;;
315;SDS011;14128;48.686;9.738;2022-11-15T04:52:39;4.40;;;3.53;;
315;SDS011;14128;48.686;9.738;2022-11-15T04:55:08;7.80;;;4.63;;
315;SDS011;14128;48.686;9.738;2022-11-15T04:57:35;4.07;;;3.67;;
315;SDS011;14128;48.686;9.738;2022-11-15T05:00:03;4.60;;;4.07;;
315;SDS011;14128;48.686;9.738;2022-11-15T05:02:31;4.07;;;3.73;;
315;SDS011;14128;48.686;9.738;2022-11-15T05:05:11;3.47;;;3.27;;
315;SDS011;14128;48.686;9.738;2022-11-15T05:07:38;4.73;;;4.43;;
315;SDS011;14128;48.686;9.738;2022-11-15T05:10:05;5.17;;;3.83;;
315;SDS011;14128;48.686;9.738;2022-11-15T05:12:34;5.90;;;4.13;;
315;SDS011;14128;48.686;9.738;2022-11-15T05:15:01;6.50;;;3.63;;
315;SDS011;14128;48.686;9.738;2022-11-15T05:17:28;5.20;;;4.50;;
315;SDS011;14128;48.686;9.738;2022-11-15T05:19:55;6.47;;;4.70;;
315;SDS011;14128;48.686;9.738;2022-11-15T05:22:22;6.87;;;4.33;;
315;SDS011;14128;48.686;9.738;2022-11-15T05:24:49;5.90;;;4.93;;
315;SDS011;14128;48.686;9.738;2022-11-15T05:27:17;9.10;;;5.43;;
315;SDS011;14128;48.686;9.738;2022-11-15T05:29:44;6.80;;;5.90;;
315;SDS011;14128;48.686;9.738;2022-11-15T05:32:10;6.43;;;4.87;;
315;SDS011;14128;48.686;9.738;2022-11-15T05:34:38;6.70;;;6.37;;
315;SDS011;14128;48.686;9.738;2022-11-15T05:37:05;7.90;;;6.63;;
315;SDS011;14128;48.686;9.738;2022-11-15T05:39:32;7.03;;;6.07;;
315;SDS011;14128;48.686;9.738;2022-11-15T05:41:59;11.73;;;6.67;;
315;SDS011;14128;48.686;9.738;2022-11-15T05:44:32;9.07;;;8.10;;
315;SDS011;14128;48.686;9.738;2022-11-15T05:47:02;8.50;;;6.13;;
315;SDS011;14128;48.686;9.738;2022-11-15T05:49:31;7.07;;;6.67;;
315;SDS011;14128;48.686;9.738;2022-11-15T05:52:02;6.93;;;6.53;;
315;SDS011;14128;48.686;9.738;2022-11-15T05:54:31;7.37;;;6.80;;
315;SDS011;14128;48.686;9.738;2022-11-15T05:56:58;8.10;;;6.60;;
315;SDS011;14128;48.686;9.738;2022-11-15T05:59:26;9.50;;;7.17;;
315;SDS011;14128;48.686;9.738;2022-11-15T06:01:56;8.37;;;7.97;;
315;SDS011;14128;48.686;9.738;2022-11-15T06:04:23;7.17;;;5.90;;
315;SDS011;14128;48.686;9.738;2022-11-15T06:06:50;10.37;;;6.83;;
315;SDS011;14128;48.686;9.738;2022-11-15T06:09:17;10.00;;;8.33;;
315;SDS011;14128;48.686;9.738;2022-11-15T06:11:44;9.07;;;7.90;;
315;SDS011;14128;48.686;9.738;2022-11-15T06:14:10;8.20;;;7.00;;
315;SDS011;14128;48.686;9.738;2022-11-15T06:16:37;12.50;;;7.27;;
315;SDS011;14128;48.686;9.738;2022-11-15T06:19:06;9.50;;;7.47;;
315;SDS011;14128;48.686;9.738;2022-11-15T06:21:33;9.90;;;7.63;;
315;SDS011;14128;48.686;9.738;2022-11-15T06:24:00;11.23;;;8.50;;
315;SDS011;14128;48.686;9.738;2022-11-15T06:26:27;9.60;;;7.73;;
315;SDS011;14128;48.686;9.738;2022-11-15T06:28:55;12.30;;;9.33;;
315;SDS011;14128;48.686;9.738;2022-11-15T06:31:21;10.57;;;7.60;;
315;SDS011;14128;48.686;9.738;2022-11-15T06:33:48;9.97;;;8.77;;
315;SDS011;14128;48.686;9.738;2022-11-15T06:36:16;11.20;;;8.90;;
315;SDS011;14128;48.686;9.738;2022-11-15T06:38:43;9.53;;;9.07;;
315;SDS011;14128;48.686;9.738;2022-11-15T06:41:11;10.10;;;8.50;;
315;SDS011;14128;48.686;9.738;2022-11-15T06:43:39;15.43;;;10.63;;
315;SDS011;14128;48.686;9.738;2022-11-15T06:46:06;13.47;;;10.00;;
315;SDS011;14128;48.686;9.738;2022-11-15T06:48:33;11.73;;;9.47;;
315;SDS011;14128;48.686;9.738;2022-11-15T06:51:01;12.30;;;8.60;;
315;SDS011;14128;48.686;9.738;2022-11-15T06:53:31;9.67;;;9.20;;
315;SDS011;14128;48.686;9.738;2022-11-15T06:55:58;14.10;;;9.97;;
315;SDS011;14128;48.686;9.738;2022-11-15T06:58:26;12.17;;;9.57;;
315;SDS011;14128;48.686;9.738;2022-11-15T07:00:53;12.40;;;10.13;;
315;SDS011;14128;48.686;9.738;2022-11-15T07:03:24;16.03;;;10.53;;
315;SDS011;14128;48.686;9.738;2022-11-15T07:05:52;13.13;;;9.70;;
315;SDS011;14128;48.686;9.738;2022-11-15T07:08:20;13.53;;;9.80;;
315;SDS011;14128;48.686;9.738;2022-11-15T07:10:48;15.50;;;12.33;;
315;SDS011;14128;48.686;9.738;2022-11-15T07:13:15;11.97;;;10.37;;
315;SDS011;14128;48.686;9.738;2022-11-15T07:15:42;14.90;;;11.40;;
315;SDS011;14128;48.686;9.738;2022-11-15T07:18:08;13.50;;;9.90;;
315;SDS011;14128;48.686;9.738;2022-11-15T07:20:35;12.40;;;9.43;;
315;SDS011;14128;48.686;9.738;2022-11-15T07:23:02;9.90;;;7.93;;
315;SDS011;14128;48.686;9.738;2022-11-15T07:25:30;13.47;;;8.50;;
315;SDS011;14128;48.686;9.738;2022-11-15T07:27:59;11.60;;;9.90;;
315;SDS011;14128;48.686;9.738;2022-11-15T07:35:37;12.30;;;9.30;;
315;SDS011;14128;48.686;9.738;2022-11-15T07:38:04;10.17;;;8.67;;
315;SDS011;14128;48.686;9.738;2022-11-15T07:43:07;14.60;;;10.37;;
315;SDS011;14128;48.686;9.738;2022-11-15T07:45:39;9.50;;;8.80;;
315;SDS011;14128;48.686;9.738;2022-11-15T07:48:06;11.80;;;8.63;;
315;SDS011;14128;48.686;9.738;2022-11-15T07:50:33;12.87;;;10.07;;
315;SDS011;14128;48.686;9.738;2022-11-15T07:53:00;12.40;;;8.97;;
315;SDS011;14128;48.686;9.738;2022-11-15T07:55:27;10.10;;;9.60;;
315;SDS011;14128;48.686;9.738;2022-11-15T07:57:59;11.23;;;9.57;;
315;SDS011;14128;48.686;9.738;2022-11-15T08:00:28;10.10;;;9.10;;
315;SDS011;14128;48.686;9.738;2022-11-15T08:03:01;8.57;;;8.07;;
315;SDS011;14128;48.686;9.738;2022-11-15T08:05:28;10.47;;;8.30;;
315;SDS011;14128;48.686;9.738;2022-11-15T08:07:55;14.40;;;8.90;;
315;SDS011;14128;48.686;9.738;2022-11-15T08:10:22;10.90;;;7.57;;
315;SDS011;14128;48.686;9.738;2022-11-15T08:12:56;15.37;;;9.17;;
315;SDS011;14128;48.686;9.738;2022-11-15T08:15:23;13.60;;;9.43;;
315;SDS011;14128;48.686;9.738;2022-11-15T08:17:54;9.47;;;8.13;;
315;SDS011;14128;48.686;9.738;2022-11-15T08:20:21;8.00;;;7.10;;
315;SDS011;14128;48.686;9.738;2022-11-15T08:22:48;7.53;;;6.60;;
315;SDS011;14128;48.686;9.738;2022-11-15T08:25:15;10.80;;;7.30;;
315;SDS011;14128;48.686;9.738;2022-11-15T08:27:42;11.40;;;8.47;;
315;SDS011;14128;48.686;9.738;2022-11-15T08:30:10;10.50;;;8.10;;
315;SDS011;14128;48.686;9.738;2022-11-15T08:32:37;12.67;;;8.70;;
315;SDS011;14128;48.686;9.738;2022-11-15T08:35:06;10.87;;;6.70;;
315;SDS011;14128;48.686;9.738;2022-11-15T08:37:33;9.47;;;8.47;;
315;SDS011;14128;48.686;9.738;2022-11-15T08:40:01;9.50;;;8.20;;
315;SDS011;14128;48.686;9.738;2022-11-15T08:42:27;8.80;;;8.27;;
315;SDS011;14128;48.686;9.738;2022-11-15T08:44:54;7.90;;;7.50;;
315;SDS011;14128;48.686;9.738;2022-11-15T08:47:21;7.80;;;7.43;;
315;SDS011;14128;48.686;9.738;2022-11-15T08:49:49;8.50;;;7.40;;
315;SDS011;14128;48.686;9.738;2022-11-15T08:52:17;7.73;;;7.20;;
315;SDS011;14128;48.686;9.738;2022-11-15T08:54:43;6.93;;;6.53;;
315;SDS011;14128;48.686;9.738;2022-11-15T08:57:10;8.00;;;7.13;;
315;SDS011;14128;48.686;9.738;2022-11-15T08:59:37;7.93;;;6.20;;
315;SDS011;14128;48.686;9.738;2022-11-15T09:02:04;11.80;;;6.93;;
315;SDS011;14128;48.686;9.738;2022-11-15T09:04:32;6.50;;;6.10;;
315;SDS011;14128;48.686;9.738;2022-11-15T09:06:59;8.50;;;6.93;;
315;SDS011;14128;48.686;9.738;2022-11-15T09:09:27;6.40;;;6.00;;
315;SDS011;14128;48.686;9.738;2022-11-15T09:11:54;6.97;;;6.10;;
315;SDS011;14128;48.686;9.738;2022-11-15T09:14:20;7.43;;;6.10;;
315;SDS011;14128;48.686;9.738;2022-11-15T09:16:47;7.60;;;6.23;;
315;SDS011;14128;48.686;9.738;2022-11-15T09:19:14;6.80;;;6.23;;
315;SDS011;14128;48.686;9.738;2022-11-15T09:21:41;6.60;;;5.53;;
315;SDS011;14128;48.686;9.738;2022-11-15T09:24:07;5.20;;;4.93;;
315;SDS011;14128;48.686;9.738;2022-11-15T09:26:36;7.43;;;5.73;;
315;SDS011;14128;48.686;9.738;2022-11-15T09:29:02;6.97;;;5.73;;
315;SDS011;14128;48.686;9.738;2022-11-15T09:31:29;5.10;;;4.57;;
315;SDS011;14128;48.686;9.738;2022-11-15T09:33:56;7.90;;;5.20;;
315;SDS011;14128;48.686;9.738;2022-11-15T09:36:23;5.83;;;5.50;;
315;SDS011;14128;48.686;9.738;2022-11-15T09:38:50;7.37;;;5.37;;
315;SDS011;14128;48.686;9.738;2022-11-15T09:41:28;7.30;;;5.60;;
315;SDS011;14128;48.686;9.738;2022-11-15T09:44:13;8.00;;;5.27;;
315;SDS011;14128;48.686;9.738;2022-11-15T09:46:51;5.27;;;4.93;;
315;SDS011;14128;48.686;9.738;2022-11-15T09:49:25;7.50;;;5.37;;
315;SDS011;14128;48.686;9.738;2022-11-15T09:51:55;7.17;;;6.50;;
315;SDS011;14128;48.686;9.738;2022-11-15T09:54:27;7.13;;;5.73;;
315;SDS011;14128;48.686;9.738;2022-11-15T09:57:02;7.40;;;5.50;;
315;SDS011;14128;48.686;9.738;2022-11-15T09:59:49;7.60;;;5.83;;
315;SDS011;14128;48.686;9.738;2022-11-15T10:02:34;4.97;;;4.60;;
315;SDS011;14128;48.686;9.738;2022-11-15T10:05:11;8.97;;;4.30;;
315;SDS011;14128;48.686;9.738;2022-11-15T10:07:44;5.00;;;3.97;;
315;SDS011;14128;48.686;9.738;2022-11-15T10:10:19;3.80;;;3.30;;
315;SDS011;14128;48.686;9.738;2022-11-15T10:13:06;5.70;;;4.37;;
315;SDS011;14128;48.686;9.738;2022-11-15T10:15:39;6.80;;;4.20;;
315;SDS011;14128;48.686;9.738;2022-11-15T10:18:16;5.33;;;3.90;;
315;SDS011;14128;48.686;9.738;2022-11-15T10:20:47;5.00;;;3.40;;
315;SDS011;14128;48.686;9.738;2022-11-15T10:23:16;4.90;;;3.40;;
315;SDS011;14128;48.686;9.738;2022-11-15T10:25:45;3.77;;;3.43;;
315;SDS011;14128;48.686;9.738;2022-11-15T10:28:14;4.90;;;3.97;;
315;SDS011;14128;48.686;9.738;2022-11-15T10:30:44;6.23;;;3.97;;
315;SDS011;14128;48.686;9.738;2022-11-15T10:33:16;6.63;;;4.30;;
315;SDS011;14128;48.686;9.738;2022-11-15T10:38:53;4.63;;;3.47;;
315;SDS011;14128;48.686;9.738;2022-11-15T10:41:30;5.27;;;3.37;;
315;SDS011;14128;48.686;9.738;2022-11-15T10:44:03;4.03;;;3.07;;
315;SDS011;14128;48.686;9.738;2022-11-15T10:46:39;4.17;;;3.23;;
315;SDS011;14128;48.686;9.738;2022-11-15T10:49:12;4.57;;;3.83;;
315;SDS011;14128;48.686;9.738;2022-11-15T10:51:41;4.60;;;4.13;;
315;SDS011;14128;48.686;9.738;2022-11-15T10:54:10;4.73;;;3.70;;
315;SDS011;14128;48.686;9.738;2022-11-15T10:56:40;6.60;;;5.83;;
315;SDS011;14128;48.686;9.738;2022-11-15T10:59:15;4.93;;;3.27;;
315;SDS011;14128;48.686;9.738;2022-11-15T11:01:46;2.93;;;2.73;;
315;SDS011;14128;48.686;9.738;2022-11-15T11:04:14;3.10;;;2.90;;
315;SDS011;14128;48.686;9.738;2022-11-15T11:06:47;3.53;;;2.90;;
315;SDS011;14128;48.686;9.738;2022-11-15T11:09:28;5.23;;;3.50;;
315;SDS011;14128;48.686;9.738;2022-11-15T11:11:57;4.30;;;2.87;;
315;SDS011;14128;48.686;9.738;2022-11-15T11:14:26;2.90;;;2.20;;
315;SDS011;14128;48.686;9.738;2022-11-15T11:16:58;2.90;;;2.47;;
315;SDS011;14128;48.686;9.738;2022-11-15T11:22:22;4.10;;;2.50;;
315;SDS011;14128;48.686;9.738;2022-11-15T11:24:56;3.67;;;2.10;;
315;SDS011;14128;48.686;9.738;2022-11-15T11:27:35;1.87;;;1.77;;
315;SDS011;14128;48.686;9.738;2022-11-15T11:30:12;1.33;;;1.07;;
315;SDS011;14128;48.686;9.738;2022-11-15T11:32:48;1.40;;;1.30;;
315;SDS011;14128;48.686;9.738;2022-11-15T11:35:22;2.50;;;1.57;;
315;SDS011;14128;48.686;9.738;2022-11-15T11:37:55;2.13;;;1.90;;
315;SDS011;14128;48.686;9.738;2022-11-15T11:40:30;3.33;;;1.27;;
315;SDS011;14128;48.686;9.738;2022-11-15T11:43:03;1.80;;;1.27;;
315;SDS011;14128;48.686;9.738;2022-11-15T11:45:47;3.47;;;1.57;;
315;SDS011;14128;48.686;9.738;2022-11-15T11:48:38;2.40;;;1.63;;
315;SDS011;14128;48.686;9.738;2022-11-15T11:51:10;2.10;;;1.37;;
315;SDS011;14128;48.686;9.738;2022-11-15T11:53:42;4.17;;;1.87;;
315;SDS011;14128;48.686;9.738;2022-11-15T11:56:18;1.83;;;1.50;;
315;SDS011;14128;48.686;9.738;2022-11-15T11:58:50;2.03;;;1.63;;
315;SDS011;14128;48.686;9.738;2022-11-15T12:01:22;2.03;;;1.50;;
315;SDS011;14128;48.686;9.738;2022-11-15T12:03:52;1.90;;;1.73;;
315;SDS011;14128;48.686;9.738;2022-11-15T12:06:24;3.13;;;2.30;;
315;SDS011;14128;48.686;9.738;2022-11-15T12:08:58;3.03;;;1.53;;
315;SDS011;14128;48.686;9.738;2022-11-15T12:11:28;4.03;;;1.57;;
315;SDS011;14128;48.686;9.738;2022-11-15T12:14:03;2.87;;;1.70;;
315;SDS011;14128;48.686;9.738;2022-11-15T12:16:38;1.70;;;1.70;;
315;SDS011;14128;48.686;9.738;2022-11-15T12:19:08;1.50;;;1.33;;
315;SDS011;14128;48.686;9.738;2022-11-15T12:21:36;3.63;;;1.63;;
315;SDS011;14128;48.686;9.738;2022-11-15T12:24:12;10.37;;;1.90;;
315;SDS011;14128;48.686;9.738;2022-11-15T12:26:45;2.20;;;1.27;;
315;SDS011;14128;48.686;9.738;2022-11-15T12:29:18;2.10;;;1.60;;
315;SDS011;14128;48.686;9.738;2022-11-15T12:31:51;2.70;;;1.20;;
315;SDS011;14128;48.686;9.738;2022-11-15T12:40:18;6.20;;;3.20;;
315;SDS011;14128;48.686;9.738;2022-11-15T12:42:57;3.17;;;1.10;;
315;SDS011;14128;48.686;9.738;2022-11-15T12:45:30;4.20;;;2.07;;
315;SDS011;14128;48.686;9.738;2022-11-15T12:51:04;4.27;;;2.90;;
315;SDS011;14128;48.686;9.738;2022-11-15T12:53:32;3.23;;;2.40;;
315;SDS011;14128;48.686;9.738;2022-11-15T12:56:09;3.00;;;1.93;;
315;SDS011;14128;48.686;9.738;2022-11-15T12:58:49;3.60;;;1.50;;
315;SDS011;14128;48.686;9.738;2022-11-15T13:04:23;1.97;;;1.47;;
315;SDS011;14128;48.686;9.738;2022-11-15T13:06:54;3.27;;;2.77;;
315;SDS011;14128;48.686;9.738;2022-11-15T13:15:31;3.67;;;2.57;;
315;SDS011;14128;48.686;9.738;2022-11-15T13:18:19;5.47;;;2.90;;
315;SDS011;14128;48.686;9.738;2022-11-15T13:20:54;3.03;;;2.20;;
315;SDS011;14128;48.686;9.738;2022-11-15T13:23:22;3.03;;;2.50;;
315;SDS011;14128;48.686;9.738;2022-11-15T13:25:55;4.37;;;2.73;;
315;SDS011;14128;48.686;9.738;2022-11-15T13:28:33;6.20;;;4.67;;
315;SDS011;14128;48.686;9.738;2022-11-15T13:31:19;6.37;;;4.20;;
315;SDS011;14128;48.686;9.738;2022-11-15T13:33:51;5.60;;;5.20;;
315;SDS011;14128;48.686;9.738;2022-11-15T13:36:21;8.93;;;4.67;;
315;SDS011;14128;48.686;9.738;2022-11-15T13:38:55;4.77;;;2.97;;
315;SDS011;14128;48.686;9.738;2022-11-15T13:41:24;3.50;;;2.30;;
315;SDS011;14128;48.686;9.738;2022-11-15T13:43:53;3.90;;;2.27;;
315;SDS011;14128;48.686;9.738;2022-11-15T13:46:20;4.13;;;1.93;;
315;SDS011;14128;48.686;9.738;2022-11-15T13:48:51;4.67;;;2.80;;
315;SDS011;14128;48.686;9.738;2022-11-15T13:51:20;7.03;;;3.67;;
315;SDS011;14128;48.686;9.738;2022-11-15T13:54:03;4.87;;;3.23;;
315;SDS011;14128;48.686;9.738;2022-11-15T13:56:40;4.43;;;3.00;;
315;SDS011;14128;48.686;9.738;2022-11-15T13:59:14;4.77;;;3.70;;
315;SDS011;14128;48.686;9.738;2022-11-15T14:01:50;7.07;;;4.77;;
315;SDS011;14128;48.686;9.738;2022-11-15T14:04:18;4.47;;;2.63;;
315;SDS011;14128;48.686;9.738;2022-11-15T14:06:48;3.97;;;2.93;;
315;SDS011;14128;48.686;9.738;2022-11-15T14:12:24;4.33;;;3.00;;
315;SDS011;14128;48.686;9.738;2022-11-15T14:14:54;4.50;;;2.23;;
315;SDS011;14128;48.686;9.738;2022-11-15T14:17:32;2.10;;;1.50;;
315;SDS011;14128;48.686;9.738;2022-11-15T14:20:00;3.10;;;1.87;;
315;SDS011;14128;48.686;9.738;2022-11-15T14:22:29;1.80;;;1.53;;
315;SDS011;14128;48.686;9.738;2022-11-15T14:25:16;4.03;;;2.27;;
315;SDS011;14128;48.686;9.738;2022-11-15T14:28:06;5.50;;;2.07;;
315;SDS011;14128;48.686;9.738;2022-11-15T14:30:39;3.97;;;2.27;;
315;SDS011;14128;48.686;9.738;2022-11-15T14:35:57;4.63;;;1.90;;
315;SDS011;14128;48.686;9.738;2022-11-15T14:38:28;3.40;;;2.10;;
315;SDS011;14128;48.686;9.738;2022-11-15T14:40:56;2.60;;;2.23;;
315;SDS011;14128;48.686;9.738;2022-11-15T14:43:23;3.93;;;2.67;;
315;SDS011;14128;48.686;9.738;2022-11-15T14:45:50;3.87;;;2.90;;
315;SDS011;14128;48.686;9.738;2022-11-15T14:48:17;4.17;;;2.47;;
315;SDS011;14128;48.686;9.738;2022-11-15T14:50:44;3.17;;;2.00;;
315;SDS011;14128;48.686;9.738;2022-11-15T14:53:11;5.20;;;1.83;;
315;SDS011;14128;48.686;9.738;2022-11-15T14:55:40;3.77;;;2.70;;
315;SDS011;14128;48.686;9.738;2022-11-15T14:58:09;5.97;;;2.73;;
315;SDS011;14128;48.686;9.738;2022-11-15T15:00:36;5.00;;;2.60;;
315;SDS011;14128;48.686;9.738;2022-11-15T15:03:05;5.20;;;2.77;;
315;SDS011;14128;48.686;9.738;2022-11-15T15:05:33;6.83;;;3.40;;
315;SDS011;14128;48.686;9.738;2022-11-15T15:08:01;6.50;;;3.13;;
315;SDS011;14128;48.686;9.738;2022-11-15T15:10:30;4.87;;;2.67;;
315;SDS011;14128;48.686;9.738;2022-11-15T15:12:59;5.13;;;3.53;;
315;SDS011;14128;48.686;9.738;2022-11-15T15:15:29;8.47;;;4.20;;
315;SDS011;14128;48.686;9.738;2022-11-15T15:17:59;5.33;;;4.00;;
315;SDS011;14128;48.686;9.738;2022-11-15T15:20:25;5.80;;;3.73;;
315;SDS011;14128;48.686;9.738;2022-11-15T15:22:53;3.90;;;3.70;;
315;SDS011;14128;48.686;9.738;2022-11-15T15:25:21;3.90;;;3.33;;
315;SDS011;14128;48.686;9.738;2022-11-15T15:27:51;4.40;;;2.57;;
315;SDS011;14128;48.686;9.738;2022-11-15T15:30:19;5.20;;;3.90;;
315;SDS011;14128;48.686;9.738;2022-11-15T15:32:47;5.57;;;3.60;;
315;SDS011;14128;48.686;9.738;2022-11-15T15:35:14;5.10;;;3.97;;
315;SDS011;14128;48.686;9.738;2022-11-15T15:37:42;7.50;;;4.37;;
315;SDS011;14128;48.686;9.738;2022-11-15T15:40:12;6.40;;;4.77;;
315;SDS011;14128;48.686;9.738;2022-11-15T15:42:42;7.63;;;6.03;;
315;SDS011;14128;48.686;9.738;2022-11-15T15:45:09;9.60;;;8.00;;
315;SDS011;14128;48.686;9.738;2022-11-15T15:47:36;10.97;;;9.00;;
315;SDS011;14128;48.686;9.738;2022-11-15T15:50:08;13.00;;;8.67;;
315;SDS011;14128;48.686;9.738;2022-11-15T15:52:43;14.50;;;9.10;;
315;SDS011;14128;48.686;9.738;2022-11-15T15:55:09;13.40;;;7.93;;
315;SDS011;14128;48.686;9.738;2022-11-15T15:57:36;15.43;;;9.60;;
315;SDS011;14128;48.686;9.738;2022-11-15T16:00:03;15.50;;;9.17;;
315;SDS011;14128;48.686;9.738;2022-11-15T16:02:31;11.37;;;8.90;;
315;SDS011;14128;48.686;9.738;2022-11-15T16:04:58;11.57;;;10.40;;
315;SDS011;14128;48.686;9.738;2022-11-15T16:07:26;12.90;;;9.93;;
315;SDS011;14128;48.686;9.738;2022-11-15T16:09:54;13.07;;;9.30;;